Holbrook, Pennsylvania
Current Conditions -  °F | °C
As of 11:15 AM on Saturday 25 Oct 2014 (Local Time) from KAFJ Reporting Station
Overcast Overcast  
Wind Chill: 55°   Ceiling: 10000
Heat Index: 55°   Visibility: 10mi
Dew Point: 45°   Wind: 10mph
Humidity: 67%   Direction: 230°SW
Pressure: 29.96"   Gusts: NA
Location:  39.86°N, 80.31°W
Report Text: KAFJ 251515Z AUTO 23009KT 10SM FEW032 OVC100 13/07 A2996 RMK AO1
Loading
Personal Weather Stations






























Interactive Weather Map
Tropical Storm Tracking
New forecast layout! Learn more

10-Day Weather Forecast

Advertisements
Track Severe Weather on mobile